Time;durP1;ratioP1;P1;durP2;ratioP2;P2;SDS_P1;SDS_P2;PMS_P1;PMS_P2;Temp;Humidity;BMP_temperature;BMP_pressure;BME280_temperature;BME280_humidity;BME280_pressure;Samples;Min_cycle;Max_cycle;Signal;HPM_P1;HPM_P2
2023/03/06 00:00:08;;;;;;;3.95;0.40;;;3.60;99.90;;;;;;6251242;22;20024;-84
2023/03/06 00:02:34;;;;;;;2.15;0.30;;;3.60;99.90;;;;;;6250660;22;20019;-84
2023/03/06 00:05:00;;;;;;;1.23;0.13;;;3.70;99.90;;;;;;6251128;22;20070;-84
2023/03/06 00:07:25;;;;;;;0.77;0.20;;;3.70;99.90;;;;;;6278158;22;20020;-84
2023/03/06 00:09:51;;;;;;;1.25;0.40;;;3.70;99.90;;;;;;6251031;22;20462;-84
2023/03/06 00:12:16;;;;;;;3.17;0.20;;;3.60;99.90;;;;;;6251017;22;20050;-84
2023/03/06 00:14:42;;;;;;;1.90;0.28;;;3.60;99.90;;;;;;6278053;22;20019;-85
2023/03/06 00:17:08;;;;;;;0.35;0.20;;;3.60;99.90;;;;;;6250777;22;20109;-85
2023/03/06 00:19:36;;;;;;;0.90;0.20;;;3.60;99.90;;;;;;6250995;22;20415;-84
2023/03/06 00:22:02;;;;;;;1.33;0.20;;;3.60;99.90;;;;;;6250797;22;20339;-85
2023/03/06 00:24:28;;;;;;;2.55;0.25;;;3.60;99.90;;;;;;6277905;22;20475;-85
2023/03/06 00:26:53;;;;;;;2.08;0.20;;;3.50;99.90;;;;;;6251251;22;20016;-84
2023/03/06 00:29:19;;;;;;;1.25;0.30;;;3.50;99.90;;;;;;6250826;22;20015;-85
2023/03/06 00:31:46;;;;;;;1.40;0.25;;;3.60;99.90;;;;;;6250682;22;20042;-84
2023/03/06 00:34:12;;;;;;;1.15;0.28;;;3.50;99.90;;;;;;6250708;22;20435;-84
2023/03/06 00:36:38;;;;;;;1.98;0.20;;;3.40;99.90;;;;;;6277867;22;20019;-85
2023/03/06 00:39:04;;;;;;;0.93;0.30;;;3.50;99.90;;;;;;6250752;22;20069;-84
2023/03/06 00:41:30;;;;;;;1.45;0.22;;;3.40;99.90;;;;;;6250678;22;20077;-84
2023/03/06 00:43:56;;;;;;;2.55;0.30;;;3.50;99.90;;;;;;6277806;22;20024;-84
2023/03/06 00:46:21;;;;;;;2.53;0.50;;;3.50;99.90;;;;;;6250719;22;20016;-84
2023/03/06 00:48:47;;;;;;;0.52;0.15;;;3.50;99.90;;;;;;6250625;22;20020;-84
2023/03/06 00:51:12;;;;;;;0.93;0.20;;;3.50;99.90;;;;;;6250513;22;20020;-84
2023/03/06 00:53:38;;;;;;;0.35;0.35;;;3.50;99.90;;;;;;6250605;22;20501;-84
2023/03/06 00:56:04;;;;;;;1.60;0.17;;;3.60;99.90;;;;;;6250590;22;20019;-84
2023/03/06 00:58:30;;;;;;;3.83;0.20;;;3.60;99.90;;;;;;6250623;22;20065;-84
2023/03/06 01:00:55;;;;;;;2.08;0.10;;;3.40;99.90;;;;;;6250562;22;20016;-84
2023/03/06 01:03:23;;;;;;;1.00;0.10;;;3.30;99.90;;;;;;6250494;22;20019;-84
2023/03/06 01:05:49;;;;;;;4.13;0.10;;;3.20;99.90;;;;;;6250408;22;20015;-84
2023/03/06 01:08:14;;;;;;;2.10;0.20;;;3.00;99.90;;;;;;6277863;22;20091;-84
2023/03/06 01:10:40;;;;;;;1.65;0.10;;;2.90;99.90;;;;;;6277414;22;20362;-85
2023/03/06 01:13:06;;;;;;;2.15;0.10;;;2.70;99.90;;;;;;6250397;22;20073;-85
2023/03/06 01:15:32;;;;;;;0.28;0.03;;;2.70;99.90;;;;;;6250475;22;20062;-84
2023/03/06 01:18:02;;;;;;;1.08;0.10;;;2.80;99.90;;;;;;6250154;22;20027;-85
2023/03/06 01:20:31;;;;;;;1.42;0.10;;;2.60;99.90;;;;;;6250426;22;20023;-84
2023/03/06 01:22:57;;;;;;;0.20;0.10;;;2.70;99.90;;;;;;6250322;22;20008;-84
2023/03/06 01:25:24;;;;;;;0.30;0.10;;;2.70;99.90;;;;;;6249898;22;20019;-84
2023/03/06 01:27:50;;;;;;;2.05;0.10;;;2.60;99.90;;;;;;6250283;22;20451;-84
2023/03/06 01:30:16;;;;;;;0.45;0.10;;;2.60;99.90;;;;;;6277236;22;20090;-84
2023/03/06 01:32:42;;;;;;;2.30;0.40;;;2.60;99.90;;;;;;6250175;22;20047;-84
2023/03/06 01:35:08;;;;;;;0.90;0.22;;;2.60;99.90;;;;;;6250202;22;20007;-84
2023/03/06 01:37:35;;;;;;;0.80;0.20;;;2.50;99.90;;;;;;6250182;22;20011;-84
2023/03/06 01:40:01;;;;;;;1.85;0.30;;;2.50;99.90;;;;;;6250159;22;20008;-84
2023/03/06 01:42:27;;;;;;;3.42;0.50;;;2.60;99.90;;;;;;6250171;22;20336;-84
2023/03/06 01:45:14;;;;;;;1.95;0.45;;;2.50;99.90;;;;;;6277232;22;20016;-84
2023/03/06 01:47:39;;;;;;;2.40;0.63;;;2.50;99.90;;;;;;6277146;22;20452;-85
2023/03/06 01:50:08;;;;;;;2.92;1.10;;;2.60;99.90;;;;;;6250104;22;20020;-84
2023/03/06 01:52:42;;;;;;;2.70;1.15;;;2.60;99.90;;;;;;6249703;22;20027;-84
2023/03/06 01:55:14;;;;;;;4.47;1.38;;;2.50;99.90;;;;;;6250193;22;20016;-85
2023/03/06 01:57:43;;;;;;;2.92;1.00;;;2.60;99.90;;;;;;6250037;22;20073;-85
2023/03/06 02:00:14;;;;;;;3.70;1.15;;;2.50;99.90;;;;;;6249935;22;20023;-84
2023/03/06 02:02:53;;;;;;;2.80;1.00;;;2.60;99.90;;;;;;6250022;22;20026;-84
2023/03/06 02:05:20;;;;;;;4.32;1.02;;;2.50;99.90;;;;;;6250093;22;20015;-84
2023/03/06 02:07:47;;;;;;;3.30;1.20;;;2.50;99.90;;;;;;6249981;22;20027;-84
2023/03/06 02:10:14;;;;;;;2.90;1.00;;;2.50;99.90;;;;;;6249754;22;20008;-84
2023/03/06 02:12:42;;;;;;;3.78;1.20;;;2.50;99.90;;;;;;6249900;22;20027;-85
2023/03/06 02:15:10;;;;;;;3.90;1.20;;;2.40;99.90;;;;;;6249868;22;20019;-84
2023/03/06 02:17:38;;;;;;;4.22;1.33;;;2.30;99.90;;;;;;6249623;22;20023;-84
2023/03/06 02:20:14;;;;;;;3.90;1.60;;;2.30;99.90;;;;;;6249863;22;20026;-84
2023/03/06 02:22:59;;;;;;;9.02;3.10;;;2.40;99.90;;;;;;6249917;22;20016;-84
2023/03/06 02:25:31;;;;;;;3.83;1.42;;;2.20;99.90;;;;;;6249766;22;20510;-85
2023/03/06 02:27:57;;;;;;;4.33;1.70;;;2.20;99.90;;;;;;6277329;22;20043;-84
2023/03/06 02:30:25;;;;;;;3.65;1.45;;;2.10;99.90;;;;;;6276809;22;20571;-84
2023/03/06 02:32:51;;;;;;;4.15;1.50;;;2.10;99.90;;;;;;6249844;22;20024;-84
2023/03/06 02:35:37;;;;;;;3.85;1.42;;;2.20;99.90;;;;;;6249905;22;20011;-84
2023/03/06 02:38:08;;;;;;;3.95;1.42;;;2.10;99.90;;;;;;6251487;22;20095;-84
2023/03/06 02:40:33;;;;;;;4.68;1.48;;;2.10;99.90;;;;;;6251965;22;20016;-85
2023/03/06 02:43:00;;;;;;;4.95;1.17;;;2.10;99.90;;;;;;6251848;22;20491;-84
2023/03/06 02:45:37;;;;;;;5.38;1.45;;;2.10;99.90;;;;;;6278916;22;20018;-84
2023/03/06 02:48:03;;;;;;;4.95;1.40;;;2.10;99.90;;;;;;6251722;22;20415;-84
2023/03/06 02:50:30;;;;;;;4.93;1.48;;;2.10;99.90;;;;;;6252609;22;20020;-85
2023/03/06 02:52:55;;;;;;;3.47;1.40;;;2.00;99.90;;;;;;6251791;22;20343;-85
2023/03/06 02:55:21;;;;;;;4.00;1.30;;;2.10;99.90;;;;;;6251812;22;20470;-85
2023/03/06 02:57:47;;;;;;;3.33;1.25;;;2.00;99.90;;;;;;6251798;22;20440;-85
2023/03/06 03:00:14;;;;;;;4.88;2.00;;;2.00;99.90;;;;;;6251684;22;20038;-85
2023/03/06 03:02:40;;;;;;;6.00;1.88;;;2.00;99.90;;;;;;6251653;22;20012;-85
2023/03/06 03:05:06;;;;;;;4.03;1.60;;;2.00;99.90;;;;;;6252014;22;20008;-84
2023/03/06 03:07:31;;;;;;;4.88;1.77;;;2.10;99.90;;;;;;6251625;22;20090;-85
2023/03/06 03:09:57;;;;;;;4.95;1.70;;;2.10;99.90;;;;;;6251583;22;20396;-85
2023/03/06 03:12:23;;;;;;;3.72;1.73;;;1.90;99.90;;;;;;6278563;22;20344;-85
2023/03/06 03:14:49;;;;;;;4.80;2.33;;;1.90;99.90;;;;;;6251514;22;20099;-84
2023/03/06 03:17:14;;;;;;;3.28;1.40;;;1.90;99.90;;;;;;6250780;22;20474;-85
2023/03/06 03:19:43;;;;;;;5.00;2.03;;;2.00;99.90;;;;;;6278994;22;20027;-85
2023/03/06 03:22:08;;;;;;;5.63;2.60;;;1.90;99.90;;;;;;6251509;22;20347;-85
2023/03/06 03:24:34;;;;;;;5.00;2.40;;;1.90;99.90;;;;;;6251458;22;20018;-84
2023/03/06 03:27:00;;;;;;;4.38;2.10;;;1.80;99.90;;;;;;6251445;22;20022;-85
2023/03/06 03:29:25;;;;;;;5.13;2.33;;;1.90;99.90;;;;;;6251752;22;20015;-85
2023/03/06 03:31:51;;;;;;;5.93;2.72;;;1.80;99.90;;;;;;6251606;22;20020;-84
2023/03/06 03:34:17;;;;;;;4.03;1.88;;;1.80;99.90;;;;;;6251612;22;20015;-85
2023/03/06 03:36:44;;;;;;;3.88;1.90;;;1.80;99.90;;;;;;6251834;22;20019;-84
2023/03/06 03:39:09;;;;;;;4.63;1.83;;;1.70;99.90;;;;;;6278282;22;20466;-85
2023/03/06 03:41:35;;;;;;;4.60;2.33;;;1.70;99.90;;;;;;6251308;22;20015;-84
2023/03/06 03:44:01;;;;;;;4.47;2.00;;;1.70;99.90;;;;;;6251305;22;20324;-84
2023/03/06 03:46:26;;;;;;;5.90;2.38;;;1.70;99.90;;;;;;6278292;22;20343;-84
2023/03/06 03:48:52;;;;;;;4.18;2.08;;;1.70;99.90;;;;;;6250734;22;20016;-84
2023/03/06 03:51:18;;;;;;;4.80;2.17;;;1.60;99.90;;;;;;6251503;22;20015;-84
2023/03/06 03:53:44;;;;;;;3.83;1.98;;;1.60;99.90;;;;;;6251054;22;20019;-84
2023/03/06 03:56:10;;;;;;;4.50;1.90;;;1.50;99.90;;;;;;6250918;22;20336;-84
2023/03/06 03:58:36;;;;;;;4.70;2.08;;;1.60;99.90;;;;;;6251062;22;20023;-84
2023/03/06 04:01:02;;;;;;;4.55;1.88;;;1.50;99.90;;;;;;6251106;22;20012;-84
2023/03/06 04:03:28;;;;;;;3.58;1.63;;;1.60;99.90;;;;;;6278528;22;20340;-84
2023/03/06 04:05:56;;;;;;;3.92;1.73;;;1.50;99.90;;;;;;6251054;22;20157;-83
2023/03/06 04:08:23;;;;;;;3.20;1.23;;;1.50;99.90;;;;;;6250966;22;20513;-84
2023/03/06 04:10:50;;;;;;;3.45;1.63;;;1.50;99.90;;;;;;6251216;22;20023;-84
2023/03/06 04:13:18;;;;;;;4.43;1.50;;;1.50;99.90;;;;;;6250964;22;20019;-84
2023/03/06 04:15:44;;;;;;;3.38;1.52;;;1.60;99.90;;;;;;6251031;22;20046;-84
2023/03/06 04:18:10;;;;;;;4.32;1.40;;;1.50;99.90;;;;;;6250742;22;20011;-85
2023/03/06 04:20:38;;;;;;;2.97;1.33;;;1.60;99.90;;;;;;6250691;22;20026;-84
2023/03/06 04:23:04;;;;;;;3.13;1.50;;;1.50;99.90;;;;;;6250833;22;20015;-84
2023/03/06 04:25:30;;;;;;;4.07;1.67;;;1.50;99.90;;;;;;6250848;22;20149;-84
2023/03/06 04:27:55;;;;;;;4.18;1.40;;;1.50;99.90;;;;;;6250831;22;20019;-84
2023/03/06 04:30:21;;;;;;;3.08;1.40;;;1.60;99.90;;;;;;6250849;22;20019;-84
2023/03/06 04:32:47;;;;;;;2.55;1.38;;;1.50;99.90;;;;;;6277880;22;20436;-84
2023/03/06 04:35:12;;;;;;;3.58;1.70;;;1.60;99.90;;;;;;6251194;22;20051;-84
2023/03/06 04:37:38;;;;;;;3.92;1.38;;;1.60;99.90;;;;;;6250837;22;20023;-84
2023/03/06 04:40:04;;;;;;;3.97;1.55;;;1.60;99.90;;;;;;6250722;22;20012;-84
2023/03/06 04:42:29;;;;;;;3.65;1.58;;;1.50;99.90;;;;;;6250737;22;20320;-84
2023/03/06 04:44:55;;;;;;;2.55;1.30;;;1.50;99.90;;;;;;6250754;22;20022;-84
2023/03/06 04:47:21;;;;;;;3.42;1.27;;;1.40;99.90;;;;;;6250463;22;20012;-83
2023/03/06 04:49:46;;;;;;;6.18;1.88;;;1.40;99.90;;;;;;6250675;22;20069;-83
2023/03/06 04:52:12;;;;;;;2.92;1.30;;;1.40;99.90;;;;;;6250596;22;20027;-83
2023/03/06 04:54:38;;;;;;;4.78;1.25;;;1.50;99.90;;;;;;6250509;22;20470;-83
2023/03/06 04:57:03;;;;;;;3.13;1.40;;;1.40;99.90;;;;;;6250625;22;20433;-84
2023/03/06 04:59:29;;;;;;;3.58;1.48;;;1.40;99.90;;;;;;6250546;22;20340;-83
2023/03/06 05:01:55;;;;;;;3.97;1.20;;;1.30;99.90;;;;;;6250491;22;20012;-84
2023/03/06 05:04:20;;;;;;;3.60;1.30;;;1.30;99.90;;;;;;6250369;22;20016;-84
2023/03/06 05:06:46;;;;;;;3.22;1.33;;;1.30;99.90;;;;;;6277475;22;20382;-84
2023/03/06 05:09:12;;;;;;;3.33;1.65;;;1.30;99.90;;;;;;6277773;22;20432;-83
2023/03/06 05:11:37;;;;;;;4.00;1.30;;;1.40;99.90;;;;;;6250261;22;20023;-84
2023/03/06 05:14:03;;;;;;;4.53;1.77;;;1.30;99.90;;;;;;6250401;22;20026;-84
2023/03/06 05:16:29;;;;;;;3.20;1.20;;;1.30;99.90;;;;;;6250365;22;20059;-84
2023/03/06 05:18:57;;;;;;;3.65;1.52;;;1.30;99.90;;;;;;6249910;22;20012;-84
2023/03/06 05:21:24;;;;;;;2.97;1.38;;;1.30;99.90;;;;;;6250313;22;20027;-84
2023/03/06 05:23:49;;;;;;;4.32;1.70;;;1.40;99.90;;;;;;6250152;22;20070;-83
2023/03/06 05:26:15;;;;;;;3.17;1.33;;;1.20;99.90;;;;;;6250240;22;20344;-83
2023/03/06 05:28:41;;;;;;;3.50;1.40;;;1.20;99.90;;;;;;6250417;22;20145;-83
2023/03/06 05:31:07;;;;;;;3.17;1.20;;;1.10;99.90;;;;;;6250027;22;20016;-83
2023/03/06 05:33:34;;;;;;;6.35;1.60;;;1.20;99.90;;;;;;6250011;22;20066;-83
2023/03/06 05:36:00;;;;;;;2.60;1.20;;;1.20;99.90;;;;;;6250184;22;20012;-83
2023/03/06 05:38:25;;;;;;;2.85;1.20;;;1.10;99.90;;;;;;6250159;22;20051;-83
2023/03/06 05:40:51;;;;;;;3.30;1.30;;;1.20;99.90;;;;;;6277042;22;20019;-83
2023/03/06 05:43:16;;;;;;;7.03;1.80;;;1.30;99.90;;;;;;6250162;22;20447;-83
2023/03/06 05:45:43;;;;;;;2.38;1.10;;;1.20;99.90;;;;;;6249989;22;20440;-83
2023/03/06 05:48:10;;;;;;;3.20;1.27;;;1.00;99.90;;;;;;6249911;22;20050;-84
2023/03/06 05:50:36;;;;;;;3.05;1.50;;;1.00;99.90;;;;;;6249674;22;20374;-84
2023/03/06 05:53:02;;;;;;;2.95;1.40;;;1.00;99.90;;;;;;6249924;22;20414;-83
2023/03/06 05:55:28;;;;;;;3.88;1.73;;;1.10;99.90;;;;;;6249851;22;20016;-83
2023/03/06 05:57:54;;;;;;;3.78;1.58;;;1.10;99.90;;;;;;6249899;22;20069;-83
2023/03/06 06:00:20;;;;;;;3.85;1.30;;;1.10;99.90;;;;;;6250105;22;20012;-83
2023/03/06 06:02:46;;;;;;;3.38;1.30;;;1.00;99.90;;;;;;6249796;22;20050;-83
2023/03/06 06:05:12;;;;;;;4.13;1.65;;;1.00;99.90;;;;;;6249743;22;20012;-83
2023/03/06 06:07:38;;;;;;;3.47;1.50;;;1.00;99.90;;;;;;6249597;22;20074;-83
2023/03/06 06:10:05;;;;;;;3.30;1.40;;;1.00;99.90;;;;;;6248628;22;20015;-83
2023/03/06 06:12:31;;;;;;;4.20;1.73;;;1.00;99.90;;;;;;6248747;22;20081;-83
2023/03/06 06:14:56;;;;;;;5.65;1.60;;;0.90;99.90;;;;;;6249426;22;20020;-83
2023/03/06 06:17:22;;;;;;;3.53;1.40;;;1.00;99.90;;;;;;6276603;22;20091;-83
2023/03/06 06:19:48;;;;;;;3.70;1.42;;;0.90;99.90;;;;;;6277138;22;20475;-83
2023/03/06 06:22:14;;;;;;;4.40;1.35;;;0.90;99.90;;;;;;6249534;22;20026;-83
2023/03/06 06:24:39;;;;;;;2.30;1.02;;;0.90;99.90;;;;;;6276780;22;20094;-83
2023/03/06 06:27:06;;;;;;;3.67;1.52;;;0.80;99.90;;;;;;6249156;22;20020;-83
2023/03/06 06:29:31;;;;;;;4.05;1.55;;;0.70;99.90;;;;;;6276450;22;20027;-83
2023/03/06 06:32:06;;;;;;;4.00;1.50;;;0.70;99.90;;;;;;6248976;22;20019;-83
2023/03/06 06:34:31;;;;;;;5.00;1.63;;;0.70;99.90;;;;;;6249442;22;20016;-83
2023/03/06 06:36:57;;;;;;;4.60;1.60;;;0.60;99.90;;;;;;6249690;22;20084;-83
2023/03/06 06:39:27;;;;;;;2.85;1.45;;;0.70;99.90;;;;;;6249436;22;20023;-83
2023/03/06 06:41:53;;;;;;;4.90;1.63;;;0.70;99.90;;;;;;6249541;22;20098;-83
2023/03/06 06:44:19;;;;;;;4.10;1.30;;;0.70;99.90;;;;;;6249546;22;20375;-83
2023/03/06 06:46:45;;;;;;;5.45;1.50;;;0.70;99.90;;;;;;6249463;22;20015;-83
2023/03/06 06:49:12;;;;;;;3.00;1.30;;;0.60;99.90;;;;;;6249248;22;20035;-83
2023/03/06 06:51:38;;;;;;;5.43;1.55;;;0.60;99.90;;;;;;6249145;22;20443;-84
2023/03/06 06:54:04;;;;;;;4.72;1.60;;;0.60;99.90;;;;;;6249521;22;20058;-83
2023/03/06 06:56:30;;;;;;;3.80;1.40;;;0.70;99.90;;;;;;6249547;22;20019;-83
2023/03/06 06:58:58;;;;;;;3.17;1.48;;;0.70;99.90;;;;;;6276513;22;20016;-83
2023/03/06 07:01:24;;;;;;;3.55;1.58;;;0.90;99.90;;;;;;6249732;22;20458;-83
2023/03/06 07:03:50;;;;;;;3.90;1.65;;;0.80;99.90;;;;;;6249374;22;20384;-83
2023/03/06 07:06:16;;;;;;;5.57;1.42;;;0.90;99.90;;;;;;6249727;22;20012;-83
2023/03/06 07:08:42;;;;;;;3.95;1.30;;;1.00;99.90;;;;;;6249183;22;20397;-83
2023/03/06 07:11:14;;;;;;;3.78;1.50;;;1.00;99.90;;;;;;6248962;22;20011;-83
2023/03/06 07:13:40;;;;;;;6.03;1.75;;;1.10;99.90;;;;;;6249488;22;20011;-84
2023/03/06 07:16:06;;;;;;;3.42;1.50;;;1.10;99.90;;;;;;6249424;22;20313;-84
2023/03/06 07:18:32;;;;;;;4.80;1.77;;;1.00;99.90;;;;;;6249020;22;20090;-83
2023/03/06 07:20:57;;;;;;;3.15;1.38;;;1.10;99.90;;;;;;6249402;22;20051;-84
2023/03/06 07:23:23;;;;;;;3.65;1.15;;;1.40;99.90;;;;;;6249339;22;20458;-84
2023/03/06 07:25:49;;;;;;;4.75;1.42;;;1.50;99.90;;;;;;6251304;22;20020;-84
2023/03/06 07:28:15;;;;;;;4.35;1.63;;;1.50;99.90;;;;;;6251225;22;20073;-83
2023/03/06 07:30:41;;;;;;;4.43;1.70;;;1.60;99.90;;;;;;6251014;22;20015;-84
2023/03/06 07:33:07;;;;;;;4.30;1.77;;;1.70;99.90;;;;;;6251044;22;20012;-84
2023/03/06 07:35:32;;;;;;;5.35;2.53;;;1.90;99.90;;;;;;6251034;22;20438;-84
2023/03/06 07:37:58;;;;;;;23.08;10.57;;;1.90;99.90;;;;;;6251088;22;20015;-84
2023/03/06 07:40:24;;;;;;;39.15;20.45;;;2.00;99.90;;;;;;6251112;22;20019;-84
2023/03/06 07:42:54;;;;;;;30.92;15.60;;;2.00;99.90;;;;;;6250992;22;20094;-86
2023/03/06 07:45:20;;;;;;;16.13;10.15;;;2.10;99.90;;;;;;6250974;22;20019;-84
2023/03/06 07:47:51;;;;;;;11.93;4.75;;;2.10;99.90;;;;;;6251686;22;20073;-84
2023/03/06 07:50:18;;;;;;;5.93;3.78;;;2.30;99.90;;;;;;6250973;22;20055;-85
2023/03/06 07:52:44;;;;;;;4.85;2.58;;;2.40;99.90;;;;;;6250741;22;20022;-84
2023/03/06 07:55:10;;;;;;;8.05;2.50;;;2.40;99.90;;;;;;6250615;22;20016;-85
2023/03/06 07:57:37;;;;;;;5.57;1.70;;;2.60;99.90;;;;;;6250890;22;20020;-86
2023/03/06 08:00:10;;;;;;;4.35;2.30;;;2.60;99.90;;;;;;6251232;22;20023;-87
2023/03/06 08:02:39;;;;;;;3.35;1.60;;;2.80;99.90;;;;;;6251013;22;20047;-86
2023/03/06 08:05:07;;;;;;;5.45;1.73;;;2.90;99.90;;;;;;6250253;22;20015;-82
2023/03/06 08:07:33;;;;;;;4.45;1.33;;;3.00;99.90;;;;;;6250851;22;20047;-84
2023/03/06 08:09:59;;;;;;;4.78;1.98;;;3.10;99.90;;;;;;6250905;22;20015;-83
2023/03/06 08:12:25;;;;;;;3.65;1.80;;;3.20;99.90;;;;;;6277831;22;20016;-83
2023/03/06 08:14:51;;;;;;;6.65;1.70;;;3.30;99.90;;;;;;6278373;22;20137;-84
2023/03/06 08:17:16;;;;;;;6.28;1.73;;;3.30;99.90;;;;;;6250490;22;20039;-82
2023/03/06 08:19:43;;;;;;;4.63;1.33;;;3.40;99.90;;;;;;6276317;22;20019;-87
2023/03/06 08:22:10;;;;;;;3.50;1.42;;;3.40;99.90;;;;;;6278147;22;20015;-83
2023/03/06 08:24:36;;;;;;;3.88;1.20;;;3.50;99.90;;;;;;6250819;22;20081;-87
2023/03/06 08:27:02;;;;;;;5.55;1.42;;;3.70;99.90;;;;;;6249958;22;20498;-86
2023/03/06 08:29:28;;;;;;;4.40;1.50;;;3.70;99.90;;;;;;6250415;22;20047;-86
2023/03/06 08:31:53;;;;;;;3.95;0.98;;;3.80;99.90;;;;;;6250400;22;20027;-86
2023/03/06 08:34:23;;;;;;;2.35;0.95;;;3.90;99.90;;;;;;6250244;22;20019;-86
2023/03/06 08:36:48;;;;;;;5.13;0.50;;;4.10;99.90;;;;;;6250316;22;20023;-86
2023/03/06 08:39:14;;;;;;;2.33;0.52;;;4.30;99.90;;;;;;6250391;22;20020;-86
2023/03/06 08:41:43;;;;;;;0.80;0.20;;;4.20;99.90;;;;;;6250531;22;20072;-87
2023/03/06 08:44:09;;;;;;;2.92;0.45;;;4.40;99.90;;;;;;6250209;22;20550;-85
2023/03/06 08:46:35;;;;;;;1.73;0.30;;;4.40;99.90;;;;;;6250476;22;20022;-86
2023/03/06 08:49:02;;;;;;;2.35;0.30;;;4.50;99.90;;;;;;6250422;22;20023;-89
2023/03/06 08:51:28;;;;;;;4.18;0.50;;;4.50;99.90;;;;;;6250552;22;20012;-87
2023/03/06 08:53:54;;;;;;;2.05;0.20;;;4.60;99.90;;;;;;6250190;22;20023;-86
2023/03/06 08:56:25;;;;;;;1.27;0.47;;;4.70;99.90;;;;;;6250174;22;20019;-86
2023/03/06 08:58:51;;;;;;;2.05;0.20;;;4.80;99.90;;;;;;6250241;22;20133;-87
2023/03/06 09:01:24;;;;;;;1.92;0.32;;;4.90;99.90;;;;;;6250418;22;20090;-86
2023/03/06 09:03:50;;;;;;;1.43;0.23;;;4.90;99.90;;;;;;6250112;22;20022;-86
2023/03/06 09:06:16;;;;;;;2.67;0.20;;;5.00;99.90;;;;;;6250135;22;20015;-86
2023/03/06 09:08:43;;;;;;;2.58;0.30;;;5.00;99.90;;;;;;6249980;22;20023;-86
2023/03/06 09:11:10;;;;;;;2.28;0.20;;;5.10;99.90;;;;;;6249907;22;20471;-86
2023/03/06 09:13:36;;;;;;;3.65;0.50;;;5.10;99.90;;;;;;6250170;22;20016;-86
2023/03/06 09:16:02;;;;;;;2.58;0.30;;;5.10;99.90;;;;;;6250024;22;20106;-86
2023/03/06 09:18:28;;;;;;;1.63;0.20;;;5.10;99.90;;;;;;6276890;22;20015;-87
2023/03/06 09:21:11;;;;;;;0.93;0.25;;;5.30;99.90;;;;;;6277226;22;20023;-86
2023/03/06 09:23:38;;;;;;;2.50;0.33;;;5.20;99.90;;;;;;6250014;22;20073;-86
2023/03/06 09:26:05;;;;;;;3.33;0.32;;;5.30;99.90;;;;;;6277252;22;20246;-87
2023/03/06 09:28:31;;;;;;;2.05;0.25;;;5.30;99.90;;;;;;6249985;22;20420;-88
2023/03/06 09:30:57;;;;;;;2.03;0.13;;;5.30;99.90;;;;;;6276653;22;20057;-87
2023/03/06 09:33:23;;;;;;;1.65;0.22;;;5.40;99.90;;;;;;6249978;22;20150;-87
2023/03/06 09:35:50;;;;;;;0.65;0.20;;;5.50;99.90;;;;;;6249495;22;20379;-88
2023/03/06 09:38:31;;;;;;;0.95;0.15;;;5.60;99.90;;;;;;6276660;22;20321;-88
2023/03/06 09:40:57;;;;;;;2.75;0.30;;;5.70;99.90;;;;;;6276823;22;20034;-88
2023/03/06 09:43:38;;;;;;;3.00;0.22;;;5.70;99.90;;;;;;6250155;22;20366;-87
2023/03/06 09:46:35;;;;;;;2.20;0.30;;;5.80;99.90;;;;;;6249413;22;20015;-87
2023/03/06 09:49:42;;;;;;;2.00;0.30;;;5.90;99.90;;;;;;6249724;22;20077;-88
2023/03/06 09:52:39;;;;;;;3.03;0.38;;;6.00;99.90;;;;;;6193464;22;20440;-88
2023/03/06 09:55:26;;;;;;;2.95;0.10;;;6.20;99.90;;;;;;6249657;22;20351;-86
2023/03/06 09:57:59;;;;;;;10.73;0.50;;;6.30;99.90;;;;;;6249628;22;20011;-88
2023/03/06 10:00:40;;;;;;;1.55;0.30;;;6.40;99.90;;;;;;6249946;22;20016;-88
2023/03/06 10:03:40;;;;;;;2.90;0.30;;;6.50;99.90;;;;;;6249626;22;20015;-89
2023/03/06 10:06:24;;;;;;;0.75;0.20;;;6.50;99.90;;;;;;6249625;22;20012;-88
2023/03/06 10:09:01;;;;;;;2.83;0.40;;;6.60;99.90;;;;;;6249731;22;20016;-87
2023/03/06 10:11:38;;;;;;;4.72;0.45;;;6.60;99.90;;;;;;6249606;22;20025;-87
2023/03/06 10:14:22;;;;;;;2.10;0.30;;;6.60;99.90;;;;;;6249725;22;20030;-87
2023/03/06 10:16:48;;;;;;;4.53;0.30;;;6.50;99.90;;;;;;6249530;22;20019;-88
2023/03/06 10:19:18;;;;;;;3.40;0.30;;;6.60;99.90;;;;;;6249237;22;20074;-87
2023/03/06 10:22:13;;;;;;;5.68;0.30;;;6.60;99.90;;;;;;6249397;22;20024;-86
2023/03/06 10:25:14;;;;;;;1.08;0.50;;;6.50;99.90;;;;;;6249569;22;20027;-86
2023/03/06 10:27:55;;;;;;;3.75;1.20;;;6.40;99.90;;;;;;6249258;22;20324;-86
2023/03/06 10:30:43;;;;;;;3.17;0.55;;;6.40;99.90;;;;;;6249501;22;20024;-86
2023/03/06 10:33:38;;;;;;;2.40;0.20;;;6.50;99.90;;;;;;6276871;22;20016;-87
2023/03/06 10:36:04;;;;;;;1.55;0.40;;;6.80;99.90;;;;;;6249519;22;20020;-86
2023/03/06 10:38:30;;;;;;;2.35;0.30;;;7.00;99.90;;;;;;6249424;22;20022;-87
2023/03/06 10:41:21;;;;;;;2.72;0.40;;;7.20;99.90;;;;;;6249339;22;20044;-83
2023/03/06 10:43:59;;;;;;;2.08;0.52;;;7.30;99.90;;;;;;6249275;22;20020;-85
2023/03/06 10:46:29;;;;;;;2.90;0.40;;;7.50;99.90;;;;;;6249351;22;20094;-86
2023/03/06 10:49:01;;;;;;;4.30;0.52;;;7.50;99.90;;;;;;6249124;22;20026;-87
2023/03/06 10:51:28;;;;;;;3.30;0.63;;;7.70;99.90;;;;;;6249148;22;20051;-85
2023/03/06 10:53:55;;;;;;;1.27;0.35;;;7.80;99.90;;;;;;6249270;22;20447;-85
2023/03/06 10:56:38;;;;;;;3.17;0.40;;;8.00;99.90;;;;;;6249318;22;20478;-89
2023/03/06 10:59:05;;;;;;;1.70;0.40;;;7.90;99.90;;;;;;6250636;22;20458;-84
2023/03/06 11:01:31;;;;;;;2.72;0.38;;;8.00;99.90;;;;;;6251128;22;20023;-84
2023/03/06 11:04:25;;;;;;;3.13;0.30;;;7.80;99.90;;;;;;6251164;22;20023;-85
2023/03/06 11:07:16;;;;;;;2.67;0.60;;;7.60;99.90;;;;;;6251337;22;20023;-84
2023/03/06 11:09:57;;;;;;;1.83;0.10;;;7.70;99.90;;;;;;6251049;22;20094;-82
2023/03/06 11:12:40;;;;;;;2.55;0.40;;;7.60;99.90;;;;;;6250972;22;20026;-82
2023/03/06 11:15:08;;;;;;;2.13;0.20;;;7.70;99.90;;;;;;6250880;22;20019;-83
2023/03/06 11:17:57;;;;;;;1.60;0.30;;;7.50;99.90;;;;;;6250693;22;20015;-83
2023/03/06 11:20:26;;;;;;;1.88;0.30;;;7.30;99.90;;;;;;6250823;22;20027;-84
2023/03/06 11:23:13;;;;;;;3.75;0.45;;;7.30;99.90;;;;;;6278377;22;20016;-84
2023/03/06 11:25:47;;;;;;;1.75;0.30;;;7.40;99.90;;;;;;6278337;22;20047;-84
2023/03/06 11:28:22;;;;;;;2.35;0.60;;;7.60;99.90;;;;;;6277997;22;20412;-83
2023/03/06 11:30:59;;;;;;;1.67;0.20;;;7.80;99.90;;;;;;6250787;22;20098;-84
2023/03/06 11:33:48;;;;;;;3.35;0.30;;;7.70;99.90;;;;;;6250812;22;20024;-86
2023/03/06 11:36:36;;;;;;;1.42;0.20;;;7.60;99.90;;;;;;6250713;22;20026;-86
2023/03/06 11:39:32;;;;;;;2.15;0.50;;;7.80;99.90;;;;;;6277802;22;20020;-81
2023/03/06 11:42:30;;;;;;;3.80;0.60;;;8.10;99.90;;;;;;6276548;22;20317;-82
2023/03/06 11:45:20;;;;;;;0.93;0.50;;;8.30;99.90;;;;;;6245171;22;20321;-81
2023/03/06 11:47:57;;;;;;;1.95;0.43;;;8.50;99.90;;;;;;6250343;22;20020;-83
2023/03/06 11:50:43;;;;;;;2.28;0.40;;;8.50;99.90;;;;;;6250486;22;20347;-85
2023/03/06 11:53:17;;;;;;;3.80;0.60;;;8.70;99.90;;;;;;6278330;22;20015;-83
2023/03/06 11:56:04;;;;;;;2.55;0.90;;;8.90;99.90;;;;;;6250555;22;20015;-82
2023/03/06 11:58:54;;;;;;;1.02;0.35;;;8.90;99.90;;;;;;6250635;22;20043;-81
2023/03/06 12:02:04;;;;;;;1.50;0.43;;;8.90;99.90;;;;;;6250455;22;20082;-84
2023/03/06 12:04:33;;;;;;;1.42;0.30;;;8.90;99.90;;;;;;6250479;22;20054;-82
2023/03/06 12:07:32;;;;;;;1.77;0.40;;;9.00;99.90;;;;;;6250385;22;20518;-82
2023/03/06 12:10:01;;;;;;;3.53;0.40;;;9.00;99.90;;;;;;6250170;22;20069;-82
2023/03/06 12:13:09;;;;;;;0.80;0.47;;;9.10;99.90;;;;;;6250684;22;20019;-83
2023/03/06 12:16:01;;;;;;;1.48;0.50;;;9.00;99.90;;;;;;6250293;22;20118;-82
2023/03/06 12:18:39;;;;;;;2.22;0.40;;;8.70;99.90;;;;;;6250192;22;20016;-83
2023/03/06 12:21:37;;;;;;;2.03;0.50;;;8.70;99.90;;;;;;6250290;22;20030;-85
2023/03/06 12:24:05;;;;;;;2.88;0.40;;;8.40;99.90;;;;;;6250401;22;20465;-82
2023/03/06 12:26:46;;;;;;;2.40;0.60;;;8.40;99.90;;;;;;6250189;22;20023;-83
2023/03/06 12:29:27;;;;;;;1.45;0.30;;;8.40;99.90;;;;;;6250399;22;20461;-80
2023/03/06 12:32:12;;;;;;;3.75;0.40;;;8.50;99.90;;;;;;6250152;22;20351;-82
2023/03/06 12:34:44;;;;;;;1.75;0.50;;;8.30;99.90;;;;;;6250608;22;20324;-83
2023/03/06 12:37:10;;;;;;;2.17;0.40;;;8.30;99.90;;;;;;6250141;22;20023;-81
2023/03/06 12:39:54;;;;;;;2.85;0.70;;;8.30;99.90;;;;;;6250219;22;20042;-81
2023/03/06 12:42:47;;;;;;;1.10;0.50;;;8.10;99.90;;;;;;6250105;22;20443;-87
2023/03/06 12:45:30;;;;;;;2.53;0.90;;;8.10;99.90;;;;;;6250088;22;20016;-85
2023/03/06 12:47:56;;;;;;;2.50;0.68;;;8.00;99.90;;;;;;6249945;22;20046;-81
2023/03/06 12:50:37;;;;;;;2.53;0.40;;;7.90;99.90;;;;;;6250405;22;20016;-82
2023/03/06 12:53:06;;;;;;;3.00;0.40;;;7.60;99.90;;;;;;6250135;22;20047;-79
2023/03/06 12:55:42;;;;;;;1.55;0.30;;;7.60;99.90;;;;;;6250001;22;20022;-82
2023/03/06 12:58:26;;;;;;;2.55;0.40;;;7.60;99.90;;;;;;6250031;22;20026;-82
2023/03/06 13:01:14;;;;;;;3.67;0.38;;;7.40;99.90;;;;;;6249901;22;20019;-82
2023/03/06 13:04:01;;;;;;;1.13;0.30;;;7.40;99.90;;;;;;6249970;22;20566;-80
2023/03/06 13:06:27;;;;;;;1.88;0.40;;;7.50;99.90;;;;;;6249855;22;20062;-84
2023/03/06 13:09:03;;;;;;;4.13;0.40;;;7.40;99.90;;;;;;6250027;22;20015;-84
2023/03/06 13:11:51;;;;;;;0.95;0.35;;;7.50;99.90;;;;;;6249697;22;20020;-85
2023/03/06 13:14:29;;;;;;;2.15;0.40;;;7.30;99.90;;;;;;6249983;22;20424;-82